Pemaquid Point Lighthouse, ME

43° 50' 13"N, 69° 30' 22"W, Elevation 40 ft.
Eastern Time

Hourly observations for the last 72 hours

Date Time Temperature (°F) Humi-
dity

(%)
Wind
(mph)
Pressure Rain (in) Sun
(W/m2)
UV ET
(in)
Air Dew 6 Hour 1 Hr 3 Hr 6 Hr Day
Alt
(in)
Sea
Level

(mb)
Max Min
4 15:00 60.2 57.6 91 E 7 G 9 29.92 1013.3 0.00 338 2.8 0.057
4 14:00 60.2 57.9 60.8 56.8 92 E 8 G 10 29.92 1013.3 0.00 501 4.1 0.046
4 13:00 60.5 58.5 93 ENE 8 G 9 29.93 1013.7 0.00 606 5.3 0.034
4 12:00 59.3 57.9 95 ENE 6 G 8 29.94 1014.0 0.00 584 4.9 0.024
4 11:00 58.2 57.1 96 ENE 8 G 10 29.94 1013.9 0.00 446 3.9 0.016
4 10:00 57.2 56.1 96 NE 9 G 12 29.94 1013.8 0.00 353 2.7 0.010
4 09:00 56.9 55.8 96 ENE 9 G 13 29.93 1013.4 0.00 230 1.6 0.005
4 08:00 56.8 55.7 59.1 56.8 96 ENE 12 G 15 29.93 1013.5 0.00 209 1.1 0.002
4 07:00 57.3 56.2 96 E 11 G 14 29.92 1013.2 0.00 76 0.0 0.001
4 06:00 57.5 56.1 95 E 11 G 13 29.92 1013.3 0.00 23 0.0 0.000
4 05:00 58.4 57.0 95 ENE 8 G 9 29.91 1012.9 0.00 0 0.0 0.000
4 04:00 58.7 57.0 94 NNE 5 G 8 29.90 1012.7 0.00 0 0.0 0.000
4 03:00 58.9 57.2 94 N 4 G 8 29.91 1012.9 0.00 0 0.0 0.000
4 02:00 59.1 57.4 59.6 57.9 94 NE 7 G 9 29.91 1012.8 0.00 0 0.0 0.000
4 01:00 58.9 57.2 94 NNE 5 G 9 29.92 1013.2 0.00 0 0.0 0.000
4 00:00 58.6 56.9 94 NNE 4 G 9 29.93 1013.6 0.01 0 0.0 0.098
3 23:00 58.0 56.0 93 NNE 9 G 12 29.94 1014.1 0.01 0 0.0 0.097
3 22:00 58.6 56.0 91 NE 6 G 11 29.95 1014.4 0.01 0 0.0 0.096
3 21:00 59.4 56.8 91 ENE 7 G 11 29.94 1014.0 0.01 0 0.0 0.095
3 20:00 59.4 56.8 61.4 59.2 91 NNE 7 G 11 29.92 1013.3 0.01 42 0.0 0.093
3 19:00 59.6 56.4 89 NNE 10 G 15 29.93 1013.4 0.01 54 0.0 0.086
3 18:00 60.1 56.2 87 ENE 14 G 18 29.92 1013.3 0.01 149 0.8 0.078
3 17:00 59.8 56.2 88 NE 10 G 12 29.94 1013.8 0.01 135 1.3 0.071
3 16:00 59.7 55.8 87 NE 11 G 15 29.93 1013.5 0.01 236 1.9 0.062
3 15:00 60.2 56.3 87 ENE 13 G 16 29.94 1013.8 0.01 371 3.3 0.055
3 14:00 60.5 56.3 63.7 60.3 86 ENE 15 G 20 29.94 1013.8 0.01 315 3.1 0.045
3 13:00 61.1 56.9 86 ENE 20 G 24 29.93 1013.7 0.01 345 3.6 0.035
3 12:00 62.3 58.1 86 ENE 21 G 25 29.92 1013.1 0.01 381 3.9 0.023
3 11:00 63.1 59.5 88 NE 12 G 17 29.91 1013.0 0.01 471 4.1 0.014
3 10:00 62.4 59.1 89 NE 12 G 17 29.91 1012.8 0.01 193 1.9 0.008
3 09:00 61.4 59.1 92 NE 14 G 18 29.90 1012.5 0.01 179 1.4 0.004
3 08:00 60.3 58.9 66.3 60.1 95 NE 16 G 21 29.88 1011.7 0.01 0.01 0.01 0.01 128 0.9 0.002
3 07:00 61.8 60.6 96 ENE 11 G 16 29.84 1010.7 0.00 25 0.0 0.001
3 06:00 62.6 61.4 96 NE 12 G 16 29.82 1009.8 0.00 11 0.0 0.001
3 05:00 61.5 60.3 96 NE 6 G 11 29.79 1008.9 0.00 0 0.0 0.001
3 04:00 62.3 60.9 95 NE 12 G 15 29.78 1008.6 0.00 0 0.0 0.000
3 03:00 62.6 61.1 95 ENE 9 G 11 29.77 1008.3 0.00 0 0.0 0.000
3 02:00 66.3 64.8 70.4 64.6 95 NNE 9 G 12 29.76 1007.7 0.14 0.00 0 0.0 0.000
3 01:00 64.7 62.9 94 N 2 G 5 29.74 1007.0 0.00 0 0.0 0.000
3 00:00 64.9 63.1 94 NNE 1 G 3 29.73 1006.7 0.20 0 0.0 0.129
2 23:00 65.0 62.9 93 ENE 0 G 2 29.74 1007.0 0.14 0.20 0 0.0 0.129
2 22:00 67.4 65.6 94 NNE 5 G 8 29.73 1006.7 0.20 0 0.0 0.129
2 21:00 65.9 63.8 93 WSW 4 G 9 29.69 1005.6 0.14 0.20 0 0.0 0.129
2 20:00 70.4 66.7 70.5 66.2 88 NW 3 G 5 29.74 1007.1 0.06 0.06 0.06 0.06 0 0.0 0.128
2 19:00 66.6 64.2 92 WSW 3 G 9 29.68 1005.2 0.00 9 0.0 0.127
2 18:00 66.4 64.3 93 W 8 G 11 29.68 1005.2 0.00 86 0.6 0.124
2 17:00 68.3 65.3 90 WSW 7 G 11 29.69 1005.5 0.00 190 1.4 0.112
2 16:00 68.7 66.0 91 SW 3 G 7 29.69 1005.5 0.00 765 3.8 0.096
2 15:00 67.1 65.3 94 WSW 5 G 8 29.72 1006.3 0.00 694 4.8 0.081
2 14:00 67.0 64.9 67.5 62.3 93 SW 6 G 11 29.73 1006.7 0.00 691 5.3 0.063
2 13:00 66.8 65.3 95 SW 5 G 9 29.74 1007.1 0.00 700 5.9 0.047
2 12:00 65.9 65.0 97 SW 6 G 10 29.74 1007.2 0.00 860 6.5 0.032
2 11:00 64.3 63.4 97 WSW 4 G 9 29.75 1007.7 0.00 773 5.2 0.020
2 10:00 63.3 62.4 97 WSW 3 G 8 29.77 1008.1 0.00 424 3.2 0.012
2 09:00 62.5 61.3 96 SW 3 G 7 29.77 1008.0 0.00 316 2.2 0.006
2 08:00 62.4 61.2 62.4 59.6 96 SW 2 G 5 29.78 1008.4 0.00 221 1.2 0.003
2 07:00 62.0 60.8 96 SW 3 G 6 29.78 1008.6 0.00 105 0.5 0.001
2 06:00 62.3 61.1 96 WSW 3 G 9 29.78 1008.5 0.00 42 0.0 0.000
2 05:00 61.5 60.3 96 W 8 G 9 29.77 1008.3 0.00 0 0.0 0.000
2 04:00 59.6 58.2 95 WNW 0 G 2 29.78 1008.4 0.00 0 0.0 0.000
2 03:00 59.8 58.4 95 SSW 3 G 4 29.78 1008.4 0.00 0 0.0 0.000
2 02:00 61.1 59.7 62.6 59.8 95 W 3 G 5 29.79 1008.8 0.00 0 0.0 0.000
2 01:00 60.3 58.9 95 ESE 2 G 3 29.81 1009.4 0.00 0 0.0 0.000
2 00:00 60.2 58.5 94 ESE 0 G 2 29.83 1010.0 0.00 0 0.0 0.123
1 23:00 61.2 59.5 94 Calm 29.83 1010.3 0.00 0 0.0 0.123
1 22:00 62.2 60.5 94 Calm 29.85 1010.8 0.00 0 0.0 0.123
1 21:00 61.5 59.5 93 Calm 29.84 1010.4 0.00 0 0.0 0.123
1 20:00 62.6 60.2 66.3 62.5 92 E 1 G 2 29.83 1010.1 0.00 14 0.0 0.121
1 19:00 63.7 60.7 90 SE 1 G 2 29.84 1010.5 0.00 134 0.0 0.116
1 18:00 64.8 61.5 89 SSE 5 G 7 29.83 1010.3 0.00 359 1.0 0.106
1 17:00 64.6 61.6 90 E 2 G 4 29.83 1010.3 0.00 341 1.7 0.096
1 16:00 64.4 61.7 91 ENE 3 G 4 29.84 1010.5 0.00 508 3.0 0.082

Data generated by WxSolution Version 1.9.1.8, Build 2020.02.16.